createdAt,value
2023-05-08T00:02:29.910Z,100995.19
2023-05-08T00:05:16.775Z,100982.22
2023-05-08T00:08:01.736Z,100984.16
2023-05-08T00:10:48.689Z,100985.47
2023-05-08T00:13:29.892Z,100988.03
2023-05-08T00:16:18.033Z,100985.88
2023-05-08T00:19:05.027Z,100992.72
2023-05-08T00:21:45.402Z,100991.31
2023-05-08T00:24:32.828Z,100987.09
2023-05-08T00:27:13.605Z,100990.19
2023-05-08T00:30:00.848Z,100988.03
2023-05-08T00:32:47.947Z,100988.22
2023-05-08T00:35:35.753Z,100987.81
2023-05-08T00:38:16.874Z,100985.59
2023-05-08T00:41:10.926Z,100987.50
2023-05-08T00:43:57.944Z,100989.34
2023-05-08T00:46:39.004Z,100996.28
2023-05-08T00:49:25.706Z,100988.13
2023-05-08T00:52:08.749Z,100992.41
2023-05-08T00:54:55.611Z,100992.91
2023-05-08T00:57:45.637Z,100981.06
2023-05-08T01:00:33.584Z,100990.06
2023-05-08T01:03:15.062Z,100983.53
2023-05-08T01:06:01.617Z,100982.22
2023-05-08T01:08:41.860Z,100984.00
2023-05-08T01:11:51.578Z,100988.13
2023-05-08T01:14:40.828Z,100980.34
2023-05-08T01:17:48.059Z,100976.78
2023-05-08T01:20:41.866Z,100972.88
2023-05-08T01:23:52.598Z,100972.88
2023-05-08T01:27:01.691Z,100967.38
2023-05-08T01:30:03.192Z,100962.56
2023-05-08T01:33:11.053Z,100953.66
2023-05-08T01:36:05.731Z,100953.28
2023-05-08T01:39:15.694Z,100960.00
2023-05-08T01:42:09.223Z,100951.00
2023-05-08T01:44:54.572Z,100957.88
2023-05-08T01:47:39.567Z,100960.44
2023-05-08T01:50:39.682Z,100958.16
2023-05-08T01:53:30.398Z,100960.63
2023-05-08T01:56:25.578Z,100957.88
2023-05-08T01:59:12.569Z,100959.41
2023-05-08T02:01:54.611Z,100951.34
2023-05-08T02:04:42.566Z,100953.28
2023-05-08T02:07:22.676Z,100957.16
2023-05-08T02:10:11.764Z,100957.47
2023-05-08T02:13:02.553Z,100955.56
2023-05-08T02:15:43.449Z,100957.16
2023-05-08T02:18:34.514Z,100955.44
2023-05-08T02:21:22.566Z,100963.50
2023-05-08T02:24:11.547Z,100957.25
2023-05-08T02:26:54.614Z,100948.59
2023-05-08T02:29:42.932Z,100947.75
2023-05-08T02:32:26.372Z,100948.59
2023-05-08T02:35:13.500Z,100945.81
2023-05-08T02:38:03.460Z,100953.78
2023-05-08T02:40:47.596Z,100950.63
2023-05-08T02:43:34.452Z,100947.97
2023-05-08T02:46:46.870Z,100942.63
2023-05-08T02:50:16.467Z,100939.19
2023-05-08T02:53:07.436Z,100945.19
2023-05-08T02:55:58.139Z,100953.28
2023-05-08T02:58:53.454Z,100944.72
2023-05-08T03:01:42.530Z,100950.72
2023-05-08T03:04:40.451Z,100944.72
2023-05-08T03:07:31.448Z,100950.28
2023-05-08T03:10:24.436Z,100954.03
2023-05-08T03:13:13.373Z,100960.59
2023-05-08T03:16:06.497Z,100955.28
2023-05-08T03:19:03.398Z,100966.31
2023-05-08T03:21:45.518Z,100961.16
2023-05-08T03:24:34.432Z,100965.13
2023-05-08T03:27:15.589Z,100963.28
2023-05-08T03:30:04.393Z,100970.63
2023-05-08T03:32:47.521Z,100972.66
2023-05-08T03:35:35.414Z,100970.44
2023-05-08T03:38:23.365Z,100971.97
2023-05-08T03:41:11.410Z,100975.97
2023-05-08T03:43:52.507Z,100978.97
2023-05-08T03:46:39.417Z,100977.25
2023-05-08T03:49:21.473Z,100984.81
2023-05-08T03:52:09.392Z,100986.06
2023-05-08T03:54:49.466Z,100987.78
2023-05-08T03:57:44.397Z,100979.44
2023-05-08T04:01:06.880Z,100982.44
2023-05-08T04:04:06.403Z,100994.66
2023-05-08T04:06:56.981Z,100998.66
2023-05-08T04:10:09.389Z,100987.13
2023-05-08T04:13:09.578Z,100990.28
2023-05-08T04:16:21.378Z,101002.72
2023-05-08T04:19:08.481Z,100998.66
2023-05-08T04:21:57.361Z,101005.16
2023-05-08T04:24:47.369Z,101012.03
2023-05-08T04:27:29.328Z,100998.75
2023-05-08T04:30:17.317Z,100999.22
2023-05-08T04:32:59.683Z,100984.00
2023-05-08T04:35:47.316Z,100990.66
2023-05-08T04:38:34.440Z,100994.59
2023-05-08T04:41:22.614Z,100993.03
2023-05-08T04:44:02.431Z,100994.50
2023-05-08T04:46:49.317Z,100986.41
2023-05-08T04:49:36.310Z,100988.19
2023-05-08T04:52:16.774Z,100993.88
2023-05-08T04:55:03.351Z,100991.72
2023-05-08T04:57:46.128Z,100991.72
2023-05-08T05:00:34.630Z,100999.41
2023-05-08T05:03:14.868Z,100992.75
2023-05-08T05:06:01.351Z,101001.81
2023-05-08T05:08:41.695Z,101000.75
2023-05-08T05:11:29.286Z,101010.78
2023-05-08T05:14:09.705Z,101006.91
2023-05-08T05:16:56.270Z,101005.44
2023-05-08T05:19:51.617Z,100999.94
2023-05-08T05:22:33.664Z,101002.09
2023-05-08T05:25:22.323Z,100994.25
2023-05-08T05:28:02.857Z,100999.69
2023-05-08T05:30:49.313Z,100997.91
2023-05-08T05:33:29.666Z,100996.78
2023-05-08T05:36:16.232Z,100995.94
2023-05-08T05:38:56.586Z,100992.13
2023-05-08T05:41:43.248Z,100998.25
2023-05-08T05:44:30.392Z,100991.25
2023-05-08T05:47:12.331Z,101001.63
2023-05-08T05:49:59.479Z,101005.50
2023-05-08T05:52:40.284Z,101007.28
2023-05-08T05:55:21.081Z,101012.63
2023-05-08T05:58:09.251Z,101006.84
2023-05-08T06:00:51.493Z,101010.25
2023-05-08T06:03:38.316Z,101002.44
2023-05-08T06:06:18.622Z,101006.06
2023-05-08T06:09:05.243Z,101007.34
2023-05-08T06:11:52.185Z,101001.53
2023-05-08T06:14:32.263Z,101009.78
2023-05-08T06:17:19.441Z,101013.19
2023-05-08T06:20:00.275Z,101005.88
2023-05-08T06:22:48.212Z,101020.94
2023-05-08T06:25:35.244Z,101027.91
2023-05-08T06:28:15.591Z,101021.47
2023-05-08T06:31:02.287Z,101026.19
2023-05-08T06:33:49.180Z,101026.69
2023-05-08T06:36:29.278Z,101034.78
2023-05-08T06:39:16.205Z,101022.59
2023-05-08T06:42:12.195Z,101035.31
2023-05-08T06:44:53.833Z,101030.03
2023-05-08T06:47:40.180Z,101051.66
2023-05-08T06:50:20.746Z,101037.88
2023-05-08T06:53:07.242Z,101053.31
2023-05-08T06:55:50.170Z,101046.59
2023-05-08T06:58:39.170Z,101053.97
2023-05-08T07:01:19.424Z,101052.53
2023-05-08T07:04:07.219Z,101048.50
2023-05-08T07:06:47.373Z,101050.25
2023-05-08T07:09:34.170Z,101042.03
2023-05-08T07:12:16.626Z,101039.03
2023-05-08T07:15:13.748Z,101037.56
2023-05-08T07:18:03.294Z,101049.13
2023-05-08T07:20:50.154Z,101044.84
2023-05-08T07:23:37.152Z,101029.25
2023-05-08T07:40:23.736Z,101036.56
2023-05-08T07:43:04.122Z,101036.09
2023-05-08T07:45:50.685Z,101039.97
2023-05-08T07:48:31.216Z,101048.47
2023-05-08T07:51:17.713Z,101047.78
2023-05-08T07:53:58.699Z,101048.88
2023-05-08T07:56:45.687Z,101054.47
2023-05-08T07:59:32.691Z,101048.53
2023-05-08T08:02:13.267Z,101043.09
2023-05-08T08:04:59.745Z,101041.34
2023-05-08T08:07:46.645Z,101039.66
2023-05-08T08:10:27.246Z,101043.19
2023-05-08T08:13:13.659Z,101036.56
2023-05-08T08:15:54.039Z,101032.34
2023-05-08T08:18:40.640Z,101020.69
2023-05-08T08:21:21.037Z,101031.13
2023-05-08T08:24:07.673Z,101030.81
2023-05-08T08:26:48.119Z,101042.88
2023-05-08T08:29:34.732Z,101036.03
2023-05-08T08:32:14.971Z,101030.81
2023-05-08T08:35:01.619Z,101030.13
2023-05-08T08:37:42.085Z,101030.72
2023-05-08T08:40:28.634Z,101034.66
2023-05-08T08:43:16.654Z,101025.53
2023-05-08T08:45:56.804Z,101016.66
2023-05-08T08:48:44.778Z,101017.91
2023-05-08T08:51:52.733Z,101026.31
2023-05-08T08:54:41.612Z,101006.19
2023-05-08T08:57:29.585Z,101006.22
2023-05-08T09:00:18.811Z,101025.38
2023-05-08T09:02:58.782Z,101022.94
2023-05-08T09:05:46.590Z,101013.59
2023-05-08T09:08:26.746Z,101002.25
2023-05-08T09:11:13.585Z,101003.03
2023-05-08T09:13:53.718Z,101008.75
2023-05-08T09:16:40.665Z,101000.66
2023-05-08T09:19:24.391Z,101006.38
2023-05-08T09:22:15.601Z,100999.28
2023-05-08T09:25:09.614Z,101004.50
2023-05-08T09:27:49.923Z,101013.28
2023-05-08T09:30:36.592Z,100997.94
2023-05-08T09:33:17.985Z,101000.38
2023-05-08T09:36:04.588Z,101024.66
2023-05-08T09:38:51.583Z,101012.19
2023-05-08T09:41:31.697Z,101009.50
2023-05-08T09:44:18.551Z,101015.16
2023-05-08T09:47:05.636Z,101016.69
2023-05-08T09:50:06.244Z,101004.47
2023-05-08T09:52:52.578Z,101021.47
2023-05-08T09:55:54.581Z,101017.75
2023-05-08T09:58:47.666Z,101021.47
2023-05-08T10:01:43.630Z,101005.97
2023-05-08T10:04:30.560Z,101005.25
2023-05-08T10:07:12.989Z,101025.50
2023-05-08T10:10:19.683Z,101016.34
2023-05-08T10:13:06.605Z,101010.13
2023-05-08T10:15:49.658Z,101027.50
2023-05-08T10:18:42.541Z,101006.56
2023-05-08T10:21:23.576Z,101005.25
2023-05-08T10:24:15.489Z,101019.19
2023-05-08T10:27:19.577Z,101014.41
2023-05-08T10:30:04.455Z,101015.72
2023-05-08T10:32:56.946Z,101011.75
2023-05-08T10:35:40.381Z,101006.81
2023-05-08T10:38:30.494Z,101009.91
2023-05-08T10:41:19.010Z,101000.91
2023-05-08T10:44:01.616Z,100992.28
2023-05-08T10:46:52.156Z,100996.75
2023-05-08T10:50:02.453Z,101007.91
2023-05-08T10:52:57.492Z,101000.22
2023-05-08T10:55:39.895Z,100994.13
2023-05-08T10:58:36.487Z,101001.50
2023-05-08T11:01:23.580Z,100982.94
2023-05-08T11:04:21.625Z,100994.13
2023-05-08T11:07:08.517Z,100994.41
2023-05-08T11:09:49.178Z,101006.22
2023-05-08T11:12:40.495Z,100995.72
2023-05-08T11:15:37.435Z,101003.75
2023-05-08T11:18:26.347Z,100988.75
2023-05-08T11:21:15.953Z,100988.94
2023-05-08T11:24:10.893Z,100997.53
2023-05-08T11:26:50.817Z,101000.06
2023-05-08T11:29:37.426Z,100998.78
2023-05-08T11:32:17.849Z,101007.41
2023-05-08T11:35:04.536Z,100995.75
2023-05-08T11:38:26.487Z,101014.09
2023-05-08T11:41:37.738Z,101028.97
2023-05-08T11:44:27.852Z,101002.03
2023-05-08T11:47:17.664Z,101000.53
2023-05-08T11:50:04.456Z,101007.00
2023-05-08T11:52:46.517Z,101003.38
2023-05-08T11:55:33.386Z,101004.84
2023-05-08T11:58:20.664Z,100998.75
2023-05-08T12:01:07.441Z,101003.03
2023-05-08T12:03:47.586Z,100988.84
2023-05-08T12:06:35.417Z,100975.78
2023-05-08T12:09:24.583Z,100991.94
2023-05-08T12:12:11.417Z,100985.66
2023-05-08T12:14:55.860Z,100993.78
2023-05-08T12:17:42.488Z,100991.03
2023-05-08T12:20:24.462Z,100999.38
2023-05-08T12:23:11.428Z,100991.13
2023-05-08T12:25:53.147Z,100983.25
2023-05-08T12:28:41.382Z,100997.72
2023-05-08T12:31:21.555Z,100985.88
2023-05-08T12:34:10.510Z,100977.78
2023-05-08T12:36:51.409Z,100981.50
2023-05-08T12:39:43.361Z,100966.19
2023-05-08T12:42:23.561Z,100966.63
2023-05-08T12:45:10.374Z,100971.69
2023-05-08T12:47:54.748Z,100978.69
2023-05-08T12:50:44.971Z,100982.06
2023-05-08T12:53:28.437Z,100966.66
2023-05-08T12:56:15.372Z,100980.56
2023-05-08T12:58:55.513Z,100973.41
2023-05-08T13:01:42.419Z,100979.09
2023-05-08T13:04:22.467Z,100975.09
2023-05-08T13:07:09.322Z,100982.97
2023-05-08T13:10:04.566Z,100979.38
2023-05-08T13:12:54.359Z,100990.19
2023-05-08T13:15:34.450Z,100978.13
2023-05-08T13:18:22.347Z,100981.69
2023-05-08T13:21:10.305Z,100975.19
2023-05-08T13:23:50.687Z,100970.44
2023-05-08T13:26:37.350Z,100968.13
2023-05-08T13:29:17.660Z,100989.75
2023-05-08T13:32:04.317Z,100984.88
2023-05-08T13:34:50.253Z,100977.38
2023-05-08T13:37:38.280Z,100990.28
2023-05-08T13:40:32.321Z,100990.78
2023-05-08T13:43:19.338Z,100995.97
2023-05-08T13:45:59.475Z,100999.97
2023-05-08T13:48:46.270Z,101010.06
2023-05-08T13:51:26.551Z,101003.34
2023-05-08T13:54:13.281Z,101008.66
2023-05-08T13:56:54.031Z,101006.41
2023-05-08T13:59:42.292Z,101009.47
2023-05-08T14:02:29.406Z,101001.34
2023-05-08T14:05:10.077Z,101001.16
2023-05-08T14:07:57.304Z,101011.63
2023-05-08T14:10:44.281Z,101000.34
2023-05-08T14:13:31.253Z,101009.97
2023-05-08T14:16:19.322Z,101011.50
2023-05-08T14:19:06.253Z,101020.59
2023-05-08T14:21:53.282Z,101012.25
2023-05-08T14:24:40.255Z,101022.22
2023-05-08T14:27:20.948Z,101033.00
2023-05-08T14:30:07.236Z,101026.75
2023-05-08T14:32:47.698Z,101022.25
2023-05-08T14:35:34.252Z,101018.38
2023-05-08T14:38:15.050Z,101013.75
2023-05-08T14:41:05.283Z,101016.63
2023-05-08T14:43:52.228Z,101007.78
2023-05-08T14:46:32.626Z,101011.16
2023-05-08T14:49:25.436Z,101013.94
2023-05-08T14:52:13.339Z,101011.59
2023-05-08T14:55:00.371Z,101021.81
2023-05-08T14:57:40.467Z,101032.53
2023-05-08T15:00:28.204Z,101026.75
2023-05-08T15:03:08.352Z,101017.03
2023-05-08T15:05:55.399Z,101024.88
2023-05-08T15:08:42.226Z,101031.53
2023-05-08T15:11:29.214Z,101036.09
2023-05-08T15:14:10.320Z,101036.09
2023-05-08T15:16:57.126Z,101034.47
2023-05-08T15:19:37.285Z,101032.22
2023-05-08T15:22:24.735Z,101033.66
2023-05-08T15:25:06.363Z,101025.19
2023-05-08T15:28:00.573Z,101013.00
2023-05-08T15:30:48.099Z,101016.25
2023-05-08T15:33:28.539Z,100993.25
2023-05-08T15:36:15.161Z,101004.63
2023-05-08T15:39:02.128Z,100993.38
2023-05-08T15:41:42.335Z,101001.66
2023-05-08T15:44:41.612Z,101000.06
2023-05-08T15:47:29.291Z,101008.47
2023-05-08T15:50:16.114Z,101007.16
2023-05-08T15:52:56.267Z,101009.09
2023-05-08T15:55:43.143Z,101017.56
2023-05-08T15:58:30.124Z,101025.84
2023-05-08T16:01:10.585Z,101044.06
2023-05-08T16:03:57.121Z,101046.16
2023-05-08T16:06:37.500Z,101052.00
2023-05-08T16:09:24.091Z,101041.44
2023-05-08T16:12:04.797Z,101045.84
2023-05-08T16:14:51.123Z,101043.69
2023-05-08T16:17:39.108Z,101055.72
2023-05-08T16:20:19.188Z,101051.34
2023-05-08T16:23:06.080Z,101064.47
2023-05-08T16:25:46.186Z,101063.84
2023-05-08T16:28:33.073Z,101064.66
2023-05-08T16:31:13.338Z,101063.84
2023-05-08T16:34:00.083Z,101064.78
2023-05-08T16:36:40.711Z,101070.97
2023-05-08T16:39:27.103Z,101068.38
2023-05-08T16:42:14.052Z,101072.13
2023-05-08T16:45:01.208Z,101067.72
2023-05-08T16:47:41.162Z,101088.06
2023-05-08T16:50:28.065Z,101080.13
2023-05-08T16:53:08.151Z,101078.66
2023-05-08T16:55:55.084Z,101082.53
2023-05-08T16:58:42.037Z,101090.06
2023-05-08T17:01:29.061Z,101098.13
2023-05-08T17:04:09.179Z,101096.47
2023-05-08T17:06:56.018Z,101090.94
2023-05-08T17:09:36.155Z,101096.91
2023-05-08T17:12:23.021Z,101105.84
2023-05-08T17:15:10.037Z,101111.50
2023-05-08T17:17:50.710Z,101110.00
2023-05-08T17:20:37.056Z,101104.66
2023-05-08T17:23:17.902Z,101108.25
2023-05-08T17:26:14.024Z,101106.91
2023-05-08T17:29:00.989Z,101102.53
2023-05-08T17:31:41.190Z,101109.81
2023-05-08T17:34:29.013Z,101113.41
2023-05-08T17:37:16.014Z,101102.97
2023-05-08T17:40:09.999Z,101108.44
2023-05-08T17:42:57.064Z,101116.53
2023-05-08T17:45:37.236Z,101119.28
2023-05-08T17:48:24.032Z,101120.41
2023-05-08T17:51:04.161Z,101128.16
2023-05-08T17:53:50.939Z,101122.91
2023-05-08T17:56:31.889Z,101127.03
2023-05-08T17:59:18.953Z,101135.13
2023-05-08T18:01:59.175Z,101136.06
2023-05-08T18:04:46.010Z,101143.81
2023-05-08T18:07:33.021Z,101132.28
2023-05-08T18:10:20.092Z,101146.69
2023-05-08T18:13:00.018Z,101157.25
2023-05-08T18:15:41.276Z,101146.63
2023-05-08T18:18:27.949Z,101156.88
2023-05-08T18:21:08.786Z,101148.06
2023-05-08T18:23:55.925Z,101157.16
2023-05-08T18:26:36.340Z,101166.19
2023-05-08T18:29:22.940Z,101172.00
2023-05-08T18:32:11.361Z,101185.22
2023-05-08T18:34:50.918Z,101177.84
2023-05-08T18:37:37.929Z,101188.19
2023-05-08T18:40:25.195Z,101190.84
2023-05-08T18:43:05.391Z,101188.69
2023-05-08T18:45:52.892Z,101182.56
2023-05-08T18:48:39.990Z,101194.31
2023-05-08T18:51:19.929Z,101178.47
2023-05-08T18:54:06.885Z,101181.53
2023-05-08T18:56:46.986Z,101184.09
2023-05-08T18:59:33.868Z,101188.81
2023-05-08T19:02:20.916Z,101199.34
2023-05-08T19:05:01.306Z,101187.34
2023-05-08T19:07:47.854Z,101192.38
2023-05-08T19:10:28.358Z,101191.84
2023-05-08T19:13:14.954Z,101195.16
2023-05-08T19:15:55.363Z,101190.63
2023-05-08T19:18:42.873Z,101197.38
2023-05-08T19:21:23.340Z,101186.34
2023-05-08T19:24:09.809Z,101199.94
2023-05-08T19:26:56.922Z,101188.50
2023-05-08T19:42:00.169Z,101202.00
2023-05-08T19:44:47.114Z,101192.13
2023-05-08T19:47:27.270Z,101204.88
2023-05-08T19:50:15.329Z,101211.13
2023-05-08T19:53:02.075Z,101206.44
2023-05-08T19:55:49.502Z,101202.97
2023-05-08T19:58:29.075Z,101204.28
2023-05-08T20:01:16.293Z,101202.56
2023-05-08T20:03:58.984Z,101215.13
2023-05-08T20:06:47.199Z,101214.19
2023-05-08T20:09:27.121Z,101203.97
2023-05-08T20:12:07.583Z,101211.53
2023-05-08T20:14:54.058Z,101211.94
2023-05-08T20:17:34.513Z,101212.25
2023-05-08T20:20:15.115Z,101221.94
2023-05-08T20:22:55.260Z,101229.38
2023-05-08T20:25:42.166Z,101221.44
2023-05-08T20:28:25.213Z,101221.72
2023-05-08T20:31:12.008Z,101213.84
2023-05-08T20:33:52.124Z,101217.72
2023-05-08T20:36:39.038Z,101213.75
2023-05-08T20:39:19.074Z,101218.34
2023-05-08T20:42:06.020Z,101224.56
2023-05-08T20:44:53.049Z,101225.09
2023-05-08T20:47:40.036Z,101230.28
2023-05-08T20:50:27.034Z,101231.94
2023-05-08T20:53:07.402Z,101229.72
2023-05-08T20:55:53.998Z,101232.13
2023-05-08T20:58:41.018Z,101234.00
2023-05-08T21:01:21.348Z,101224.00
2023-05-08T21:04:08.087Z,101225.44
2023-05-08T21:06:48.955Z,101226.53
2023-05-08T21:09:36.998Z,101226.53
2023-05-08T21:12:23.943Z,101231.22
2023-05-08T21:15:05.628Z,101226.53
2023-05-08T21:17:51.990Z,101238.59
2023-05-08T21:20:33.903Z,101235.34
2023-05-08T21:23:20.968Z,101231.84
2023-05-08T21:26:01.304Z,101232.88
2023-05-08T21:28:47.999Z,101227.66
2023-05-08T21:31:28.998Z,101228.47
2023-05-08T21:34:17.006Z,101231.75
2023-05-08T21:36:57.498Z,101241.66
2023-05-08T21:39:43.983Z,101244.31
2023-05-08T21:42:24.302Z,101246.19
2023-05-08T21:45:12.127Z,101240.38
2023-05-08T21:47:59.008Z,101241.59
2023-05-08T21:50:39.050Z,101249.06
2023-05-08T21:53:25.916Z,101243.25
2023-05-08T21:56:06.015Z,101241.81
2023-05-08T21:58:52.959Z,101238.56
2023-05-08T22:01:33.504Z,101245.59
2023-05-08T22:04:19.939Z,101241.09
2023-05-08T22:07:00.025Z,101243.28
2023-05-08T22:09:46.911Z,101251.84
2023-05-08T22:12:33.857Z,101248.66
2023-05-08T22:15:29.914Z,101233.44
2023-05-08T22:18:11.004Z,101243.94
2023-05-08T22:20:57.935Z,101229.03
2023-05-08T22:23:40.024Z,101238.44
2023-05-08T22:26:27.888Z,101228.41
2023-05-08T22:29:14.873Z,101230.81
2023-05-08T22:31:55.835Z,101227.97
2023-05-08T22:34:42.915Z,101229.28
2023-05-08T22:37:23.273Z,101232.34
2023-05-08T22:40:09.907Z,101227.75
2023-05-08T22:42:57.905Z,101228.28
2023-05-08T22:45:38.985Z,101233.66
2023-05-08T22:48:25.931Z,101226.09
2023-05-08T22:51:05.935Z,101224.38
2023-05-08T22:53:53.855Z,101229.88
2023-05-08T22:56:40.920Z,101231.44
2023-05-08T22:59:21.171Z,101228.56
2023-05-08T23:02:07.833Z,101217.53
2023-05-08T23:04:54.919Z,101208.03
2023-05-08T23:07:36.087Z,101207.91
2023-05-08T23:10:22.876Z,101205.13
2023-05-08T23:13:03.072Z,101209.25
2023-05-08T23:15:49.804Z,101215.16
2023-05-08T23:18:29.892Z,101206.88
2023-05-08T23:21:16.824Z,101210.47
2023-05-08T23:24:03.988Z,101204.13
2023-05-08T23:26:50.794Z,101202.09
2023-05-08T23:29:30.925Z,101201.47
2023-05-08T23:32:17.867Z,101199.91
2023-05-08T23:34:57.921Z,101203.41
2023-05-08T23:37:44.829Z,101189.38
2023-05-08T23:40:24.961Z,101192.47
2023-05-08T23:43:12.799Z,101192.16
2023-05-08T23:45:52.893Z,101190.66
2023-05-08T23:48:39.749Z,101187.75
2023-05-08T23:51:19.910Z,101193.50
2023-05-08T23:54:06.757Z,101184.78
2023-05-08T23:56:46.866Z,101174.56
2023-05-08T23:59:33.746Z,101177.72
